Renton, WA (98059)

12:03 AM PDT on September 22, 2014 (GMT -0700)
Stonegate | Change Station
CLOSE
Current Station
Personal Weather Station
Location: Renton, WA
Elevation: 374 ft
Nearby Weather Stations

Elev 374 ft 47.51 °N, 122.15 °W | Updated 40 seconds ago

Partly Cloudy
Partly Cloudy
59.5 °F
Feels Like 59.5 °F
N
0.0
Wind Variable Wind from SE
Gusts 0.0 mph

Today
High -- | Low -- °F
--% Chance of Precip.
Yesterday
High -- | Low -- °F
Precip. -- in
6:55 AM 7:06 PM
Waning Crescent, 4% visible
Pressure 29.96 in
Visibility 10.0 miles
Clouds Few 2400 ft
Dew Point 54 °F
Humidity 83%
Rainfall 0.00 in
Snow Depth Not available.
UV 0 out of 12
Pollen 2.30 out of 12
Air Quality Not available.
Flu Activity Not available.
METAR KRNT 220653Z AUTO 14005KT 10SM FEW024 18/14 A2995 RMK AO2 SLP146 T01780144

More Conditions Fewer Conditions

Pressure 29.96 in
Visibility 10.0 miles
Clouds Few 2400 ft
Dew Point 54 °F
Humidity 83%
Rainfall 0.00 in
Snow Depth Not available.
UV 0 out of 12
Pollen 2.30 out of 12
Air Quality Not available.
Flu Activity Not available.
METAR KRNT 220653Z AUTO 14005KT 10SM FEW024 18/14 A2995 RMK AO2 SLP146 T01780144

More Conditions Fewer Conditions

10-Day Weather Forecast

Almanac

Astronomy

Sep. 22, 2014 Rise Set
Actual Time 6:55 AM PDT 7:06 PM PDT
Civil Twilight 6:24 AM PDT 7:36 PM PDT
Nautical Twilight 5:48 AM PDT 8:12 PM PDT
Astronomical Twilight 5:11 AM PDT 8:49 PM PDT
Moon 5:25 AM PDT 6:18 PM PDT
Length of Visible Light 13h 11m
Length of Day
12h 10m
Tomorrow will be 3m 23s shorter.
Waning Crescent, 4% of the Moon is Illuminated
Today
Waning Crescent
Sep 24
New
Oct 1
First Quarter
Oct 8
Full
Oct 15
Last Quarter

Community

WunderPhotos

Upload Photos

1,755,392 photos uploaded!

Nearby

Snow Depth

Station Depth Elevation
Spirit Lake 0 in 3120 ft
Stevens Pass 0 in 4070 ft
Sourdough Gulch 0 in 4000 ft
Moses Mountain 1 in 5300 ft
Wells Creek 0 in 4200 ft

Earthquake Activity

City Distance Mag. Time & Date
No recent earthquake activity has been reported nearby.
Minimum magnitude displayed is 2.5.

Coastal Water Temperatures

Place Temperature
Port Townsend, WA 52.0 °F
Seattle, WA 55.9 °F
Friday Harbor, WA 52.0 °F
Tacoma, WA 55.9 °F

Nearby Weather Stations